createdAt,value
2023-05-13T00:04:13.348Z,10.14
2023-05-13T00:10:55.702Z,10.22
2023-05-13T00:17:38.040Z,10.31
2023-05-13T00:24:20.627Z,10.35
2023-05-13T00:31:03.505Z,10.40
2023-05-13T00:37:45.692Z,10.41
2023-05-13T00:44:28.546Z,10.35
2023-05-13T00:51:11.014Z,10.31
2023-05-13T00:57:53.280Z,10.22
2023-05-13T01:05:05.535Z,10.17
2023-05-13T01:11:53.424Z,10.14
2023-05-13T01:18:47.812Z,10.12
2023-05-13T01:25:30.926Z,10.04
2023-05-13T01:32:14.127Z,9.91
2023-05-13T01:38:57.408Z,9.72
2023-05-13T01:45:42.639Z,9.61
2023-05-13T01:52:26.608Z,9.51
2023-05-13T01:59:11.035Z,9.42
2023-05-13T02:05:53.339Z,9.34
2023-05-13T02:12:35.809Z,9.25
2023-05-13T02:19:19.925Z,9.21
2023-05-13T02:26:04.291Z,9.25
2023-05-13T02:32:47.090Z,9.30
2023-05-13T02:39:29.389Z,9.27
2023-05-13T02:46:13.503Z,9.19
2023-05-13T02:52:55.874Z,9.13
2023-05-13T02:59:39.460Z,9.07
2023-05-13T03:06:21.872Z,9.05
2023-05-13T03:13:04.576Z,9.02
2023-05-13T03:19:46.814Z,9.05
2023-05-13T03:26:30.132Z,9.13
2023-05-13T03:33:12.615Z,9.21
2023-05-13T03:39:55.332Z,9.31
2023-05-13T03:46:37.841Z,9.45
2023-05-13T03:53:21.042Z,9.61
2023-05-13T04:00:04.873Z,9.79
2023-05-13T04:06:56.881Z,9.98
2023-05-13T04:13:40.848Z,10.15
2023-05-13T04:20:23.453Z,10.35
2023-05-13T04:27:06.539Z,10.51
2023-05-13T04:33:49.157Z,10.68
2023-05-13T04:40:31.610Z,10.83
2023-05-13T04:47:19.289Z,10.99
2023-05-13T04:54:01.636Z,11.14
2023-05-13T05:00:44.241Z,11.30
2023-05-13T05:07:26.556Z,11.47
2023-05-13T05:14:08.944Z,11.68
2023-05-13T05:20:51.250Z,11.90
2023-05-13T05:27:35.904Z,12.09
2023-05-13T05:34:18.769Z,12.28
2023-05-13T05:41:01.297Z,12.49
2023-05-13T05:47:44.452Z,12.74
2023-05-13T05:54:28.517Z,13.00
2023-05-13T06:01:11.069Z,13.27
2023-05-13T06:07:53.644Z,13.51
2023-05-13T06:14:35.952Z,13.77
2023-05-13T06:21:18.197Z,14.00
2023-05-13T06:28:06.251Z,14.27
2023-05-13T06:34:48.622Z,14.57
2023-05-13T06:41:31.239Z,14.91
2023-05-13T06:48:24.203Z,15.22
2023-05-13T06:55:07.112Z,15.54
2023-05-13T07:01:49.344Z,15.89
2023-05-13T07:08:31.518Z,16.24
2023-05-13T07:15:13.660Z,16.56
2023-05-13T07:21:55.984Z,16.87
2023-05-13T07:28:38.695Z,17.19
2023-05-13T07:35:21.251Z,17.56
2023-05-13T07:42:04.036Z,17.93
2023-05-13T07:48:46.249Z,18.28
2023-05-13T07:55:28.476Z,18.59
2023-05-13T08:02:11.390Z,18.94
2023-05-13T08:08:53.677Z,19.31
2023-05-13T08:15:37.132Z,19.70
2023-05-13T08:22:19.835Z,20.08
2023-05-13T08:29:02.294Z,20.44
2023-05-13T08:35:44.937Z,20.82
2023-05-13T08:42:32.456Z,21.14
2023-05-13T08:49:14.859Z,21.44
2023-05-13T08:55:57.709Z,21.79
2023-05-13T09:02:41.929Z,22.17
2023-05-13T09:09:24.802Z,22.53
2023-05-13T09:16:07.342Z,22.89
2023-05-13T09:22:52.457Z,23.24
2023-05-13T09:29:34.874Z,23.45
2023-05-13T09:36:17.241Z,23.67
2023-05-13T09:42:59.480Z,23.85
2023-05-13T09:49:43.516Z,24.11
2023-05-13T09:56:30.975Z,24.41
2023-05-13T10:03:15.197Z,24.73
2023-05-13T10:10:04.405Z,24.93
2023-05-13T10:16:48.031Z,24.88
2023-05-13T10:23:32.581Z,25.18
2023-05-13T10:30:17.497Z,25.28
2023-05-13T10:37:15.700Z,25.19
2023-05-13T10:43:59.462Z,25.51
2023-05-13T10:51:01.563Z,25.57
2023-05-13T10:58:12.084Z,25.25
2023-05-13T11:05:01.225Z,25.23
2023-05-13T11:11:48.865Z,24.90
2023-05-13T11:18:31.606Z,24.53
2023-05-13T11:25:14.048Z,24.55
2023-05-13T11:32:00.484Z,24.76
2023-05-13T11:38:43.243Z,24.75
2023-05-13T11:45:27.744Z,24.54
2023-05-13T11:52:15.257Z,24.30
2023-05-13T11:59:14.802Z,24.23
2023-05-13T12:06:05.483Z,24.47
2023-05-13T12:12:47.982Z,25.04
2023-05-13T12:19:30.324Z,25.48
2023-05-13T12:26:12.568Z,25.41
2023-05-13T12:32:59.215Z,25.27
2023-05-13T12:39:43.214Z,25.08
2023-05-13T12:46:25.771Z,24.64
2023-05-13T12:53:08.077Z,24.58
2023-05-13T12:59:50.368Z,24.86
2023-05-13T13:06:32.718Z,25.32
2023-05-13T13:13:14.903Z,26.02
2023-05-13T13:19:57.468Z,26.64
2023-05-13T13:26:39.680Z,26.69
2023-05-13T13:33:22.436Z,26.67
2023-05-13T13:40:05.505Z,26.63
2023-05-13T13:46:47.747Z,26.60
2023-05-13T13:53:29.989Z,26.22
2023-05-13T14:00:14.451Z,26.23
2023-05-13T14:06:57.875Z,26.61
2023-05-13T14:13:40.606Z,26.87
2023-05-13T14:20:24.923Z,27.13
2023-05-13T14:27:07.383Z,27.05
2023-05-13T14:33:50.353Z,26.88
2023-05-13T14:40:34.437Z,26.80
2023-05-13T14:47:16.727Z,26.80
2023-05-13T14:53:58.916Z,26.66
2023-05-13T15:00:41.693Z,26.20
2023-05-13T15:07:24.014Z,25.77
2023-05-13T15:14:06.257Z,25.37
2023-05-13T15:20:48.412Z,25.12
2023-05-13T15:27:30.576Z,24.92
2023-05-13T15:34:12.902Z,24.64
2023-05-13T15:40:55.138Z,24.29
2023-05-13T15:47:37.748Z,23.85
2023-05-13T15:54:20.094Z,23.48
2023-05-13T16:01:02.333Z,23.30
2023-05-13T16:07:44.723Z,23.52
2023-05-13T16:14:27.431Z,23.72
2023-05-13T16:21:09.627Z,23.63
2023-05-13T16:27:51.897Z,23.23
2023-05-13T16:34:34.263Z,22.75
2023-05-13T16:41:16.422Z,22.42
2023-05-13T16:47:58.665Z,22.17
2023-05-13T16:54:41.014Z,22.01
2023-05-13T17:01:23.471Z,21.78
2023-05-13T17:08:05.932Z,21.50
2023-05-13T17:14:48.162Z,21.36
2023-05-13T17:21:30.335Z,21.12
2023-05-13T17:28:12.593Z,20.89
2023-05-13T17:34:54.932Z,20.76
2023-05-13T17:41:37.110Z,20.56
2023-05-13T17:48:19.416Z,20.29
2023-05-13T17:55:01.759Z,20.04
2023-05-13T18:01:43.977Z,19.77
2023-05-13T18:08:26.357Z,19.56
2023-05-13T18:15:08.845Z,19.42
2023-05-13T18:21:51.036Z,19.23
2023-05-13T18:28:33.201Z,19.05
2023-05-13T18:35:16.121Z,18.93
2023-05-13T18:41:58.276Z,18.82
2023-05-13T18:48:40.611Z,18.71
2023-05-13T18:55:22.813Z,18.58
2023-05-13T19:02:05.531Z,18.43
2023-05-13T19:08:47.843Z,18.30
2023-05-13T19:15:30.013Z,18.20
2023-05-13T19:22:12.816Z,18.11
2023-05-13T19:28:55.018Z,17.90
2023-05-13T19:35:37.618Z,17.70
2023-05-13T19:42:20.412Z,17.58
2023-05-13T19:49:02.613Z,17.56
2023-05-13T19:55:45.368Z,17.48
2023-05-13T20:02:27.936Z,17.35
2023-05-13T20:09:12.015Z,17.23
2023-05-13T20:15:54.249Z,17.09
2023-05-13T20:22:36.525Z,16.91
2023-05-13T20:29:18.722Z,16.75
2023-05-13T20:36:01.957Z,16.52
2023-05-13T20:42:44.244Z,16.27
2023-05-13T20:49:26.900Z,16.06
2023-05-13T20:56:10.146Z,15.84
2023-05-13T21:02:53.266Z,15.64
2023-05-13T21:09:35.409Z,15.45
2023-05-13T21:16:17.646Z,15.29
2023-05-13T21:23:01.347Z,15.19
2023-05-13T21:29:43.574Z,15.07
2023-05-13T21:36:25.978Z,14.91
2023-05-13T21:43:08.067Z,14.76
2023-05-13T21:49:50.276Z,14.55
2023-05-13T21:56:32.891Z,14.35
2023-05-13T22:03:15.054Z,14.25
2023-05-13T22:09:57.709Z,14.22
2023-05-13T22:16:40.075Z,14.18
2023-05-13T22:23:22.248Z,14.17
2023-05-13T22:30:05.154Z,14.14
2023-05-13T22:36:47.599Z,14.00
2023-05-13T22:43:29.754Z,13.91
2023-05-13T22:50:12.888Z,13.80
2023-05-13T22:56:55.060Z,13.63
2023-05-13T23:03:37.298Z,13.49
2023-05-13T23:10:19.553Z,13.35
2023-05-13T23:17:01.806Z,13.25
2023-05-13T23:23:43.996Z,13.14
2023-05-13T23:30:26.185Z,13.07
2023-05-13T23:37:08.551Z,12.97
2023-05-13T23:43:50.714Z,12.86
2023-05-13T23:50:33.065Z,12.69
2023-05-13T23:57:15.227Z,12.56
